sensor_id;sensor_type;location;lat;lon;timestamp;pressure;altitude;pressure_sealevel;temperature;humidity
41843;BME280;74160;52.530;13.188;2024-01-16T00:00:14;99572.78;;;19.00;52.29
41843;BME280;74160;52.530;13.188;2024-01-16T00:02:40;99573.19;;;18.97;52.22
41843;BME280;74160;52.530;13.188;2024-01-16T00:05:05;99571.75;;;18.94;52.38
41843;BME280;74160;52.530;13.188;2024-01-16T00:07:31;99568.69;;;18.91;52.61
41843;BME280;74160;52.530;13.188;2024-01-16T00:09:57;99558.03;;;18.91;52.44
41843;BME280;74160;52.530;13.188;2024-01-16T00:12:23;99563.97;;;18.93;52.52
41843;BME280;74160;52.530;13.188;2024-01-16T00:14:48;99562.97;;;18.94;52.50
41843;BME280;74160;52.530;13.188;2024-01-16T00:17:13;99568.91;;;18.96;52.56
41843;BME280;74160;52.530;13.188;2024-01-16T00:19:39;99569.91;;;18.95;52.31
41843;BME280;74160;52.530;13.188;2024-01-16T00:22:04;99564.78;;;18.93;52.19
41843;BME280;74160;52.530;13.188;2024-01-16T00:24:30;99568.69;;;18.97;52.52
41843;BME280;74160;52.530;13.188;2024-01-16T00:26:55;99565.22;;;18.90;52.47
41843;BME280;74160;52.530;13.188;2024-01-16T00:29:21;99582.41;;;18.94;52.51
41843;BME280;74160;52.530;13.188;2024-01-16T00:31:46;99582.84;;;18.98;52.47
41843;BME280;74160;52.530;13.188;2024-01-16T00:34:11;99591.22;;;18.95;52.75
41843;BME280;74160;52.530;13.188;2024-01-16T00:36:36;99598.59;;;18.93;52.45
41843;BME280;74160;52.530;13.188;2024-01-16T00:39:02;99599.41;;;18.93;52.37
41843;BME280;74160;52.530;13.188;2024-01-16T00:41:28;99612.94;;;18.98;52.37
41843;BME280;74160;52.530;13.188;2024-01-16T00:43:53;99609.84;;;18.95;52.12
41843;BME280;74160;52.530;13.188;2024-01-16T00:46:18;99605.75;;;18.92;52.59
41843;BME280;74160;52.530;13.188;2024-01-16T00:48:44;99641.59;;;18.96;52.37
41843;BME280;74160;52.530;13.188;2024-01-16T00:51:09;99645.09;;;18.97;52.54
41843;BME280;74160;52.530;13.188;2024-01-16T00:53:39;99636.91;;;18.92;52.33
41843;BME280;74160;52.530;13.188;2024-01-16T00:56:04;99635.88;;;18.93;52.26
41843;BME280;74160;52.530;13.188;2024-01-16T00:58:30;99647.13;;;18.95;52.37
41843;BME280;74160;52.530;13.188;2024-01-16T01:00:55;99650.41;;;18.90;52.34
41843;BME280;74160;52.530;13.188;2024-01-16T01:03:20;99654.94;;;18.90;52.32
41843;BME280;74160;52.530;13.188;2024-01-16T01:05:46;99660.25;;;18.96;52.20
41843;BME280;74160;52.530;13.188;2024-01-16T01:08:11;99661.06;;;18.97;52.56
41843;BME280;74160;52.530;13.188;2024-01-16T01:10:36;99656.16;;;18.94;52.42
41843;BME280;74160;52.530;13.188;2024-01-16T01:13:01;99666.19;;;18.98;52.62
41843;BME280;74160;52.530;13.188;2024-01-16T01:15:27;99672.53;;;18.91;52.48
41843;BME280;74160;52.530;13.188;2024-01-16T01:17:52;99668.00;;;18.91;52.82
41843;BME280;74160;52.530;13.188;2024-01-16T01:20:18;99668.84;;;18.92;52.68
41843;BME280;74160;52.530;13.188;2024-01-16T01:22:44;99675.41;;;18.96;52.28
41843;BME280;74160;52.530;13.188;2024-01-16T01:25:09;99679.69;;;18.90;52.39
41843;BME280;74160;52.530;13.188;2024-01-16T01:27:35;99679.28;;;18.93;52.36
41843;BME280;74160;52.530;13.188;2024-01-16T01:30:01;99692.81;;;18.98;52.40
41843;BME280;74160;52.530;13.188;2024-01-16T01:32:26;99680.50;;;18.97;52.36
41843;BME280;74160;52.530;13.188;2024-01-16T01:34:52;99670.47;;;18.93;52.33
41843;BME280;74160;52.530;13.188;2024-01-16T01:37:17;99677.47;;;18.94;52.17
41843;BME280;74160;52.530;13.188;2024-01-16T01:39:42;99692.38;;;18.88;52.36
41843;BME280;74160;52.530;13.188;2024-01-16T01:42:07;99685.03;;;18.90;52.49
41843;BME280;74160;52.530;13.188;2024-01-16T01:44:33;99689.53;;;18.90;52.51
41843;BME280;74160;52.530;13.188;2024-01-16T01:46:58;99689.53;;;18.96;52.61
41843;BME280;74160;52.530;13.188;2024-01-16T01:49:23;99692.81;;;18.92;52.18
41843;BME280;74160;52.530;13.188;2024-01-16T01:51:49;99691.59;;;18.94;52.08
41843;BME280;74160;52.530;13.188;2024-01-16T01:54:15;99702.44;;;18.93;52.23
41843;BME280;74160;52.530;13.188;2024-01-16T01:56:44;99717.41;;;18.94;52.56
41843;BME280;74160;52.530;13.188;2024-01-16T01:59:10;99722.72;;;18.94;52.22
41843;BME280;74160;52.530;13.188;2024-01-16T02:01:36;99715.94;;;18.91;52.33
41843;BME280;74160;52.530;13.188;2024-01-16T02:04:01;99720.03;;;18.87;52.17
41843;BME280;74160;52.530;13.188;2024-01-16T02:06:27;99714.31;;;18.90;52.29
41843;BME280;74160;52.530;13.188;2024-01-16T02:08:52;99723.72;;;18.93;52.34
41843;BME280;74160;52.530;13.188;2024-01-16T02:11:18;99727.00;;;18.95;52.09
41843;BME280;74160;52.530;13.188;2024-01-16T02:13:43;99725.56;;;18.92;52.05
41843;BME280;74160;52.530;13.188;2024-01-16T02:16:20;99733.94;;;18.89;52.13
41843;BME280;74160;52.530;13.188;2024-01-16T02:18:46;99725.16;;;18.95;52.42
41843;BME280;74160;52.530;13.188;2024-01-16T02:21:11;99727.19;;;18.93;52.11
41843;BME280;74160;52.530;13.188;2024-01-16T02:23:37;99745.03;;;18.93;52.12
41843;BME280;74160;52.530;13.188;2024-01-16T02:26:03;99752.19;;;18.92;52.06
41843;BME280;74160;52.530;13.188;2024-01-16T02:28:28;99750.53;;;18.91;52.34
41843;BME280;74160;52.530;13.188;2024-01-16T02:30:54;99753.63;;;18.95;52.02
41843;BME280;74160;52.530;13.188;2024-01-16T02:33:19;99757.91;;;18.89;52.27
41843;BME280;74160;52.530;13.188;2024-01-16T02:35:44;99761.19;;;18.91;52.26
41843;BME280;74160;52.530;13.188;2024-01-16T02:38:09;99765.50;;;18.92;52.32
41843;BME280;74160;52.530;13.188;2024-01-16T02:40:34;99774.72;;;18.90;52.34
41843;BME280;74160;52.530;13.188;2024-01-16T02:43:00;99777.16;;;18.91;52.17
41843;BME280;74160;52.530;13.188;2024-01-16T02:45:26;99786.81;;;18.92;51.95
41843;BME280;74160;52.530;13.188;2024-01-16T02:47:51;99791.53;;;18.90;52.07
41843;BME280;74160;52.530;13.188;2024-01-16T02:50:16;99789.25;;;18.87;52.16
41843;BME280;74160;52.530;13.188;2024-01-16T02:52:41;99799.28;;;18.85;52.57
41843;BME280;74160;52.530;13.188;2024-01-16T02:55:07;99804.84;;;18.90;52.27
41843;BME280;74160;52.530;13.188;2024-01-16T02:57:32;99797.22;;;18.87;52.15
41843;BME280;74160;52.530;13.188;2024-01-16T02:59:57;99793.16;;;18.91;52.17
41843;BME280;74160;52.530;13.188;2024-01-16T03:02:22;99803.41;;;18.88;52.23
41843;BME280;74160;52.530;13.188;2024-01-16T03:04:48;99806.06;;;18.88;52.08
41843;BME280;74160;52.530;13.188;2024-01-16T03:07:14;99812.81;;;18.84;52.06
41843;BME280;74160;52.530;13.188;2024-01-16T03:09:39;99819.38;;;18.88;52.22
41843;BME280;74160;52.530;13.188;2024-01-16T03:12:04;99818.34;;;18.89;52.12
41843;BME280;74160;52.530;13.188;2024-01-16T03:14:29;99823.91;;;18.94;51.85
41843;BME280;74160;52.530;13.188;2024-01-16T03:17:00;99827.34;;;18.88;51.89
41843;BME280;74160;52.530;13.188;2024-01-16T03:19:25;99830.84;;;18.88;51.95
41843;BME280;74160;52.530;13.188;2024-01-16T03:21:50;99829.81;;;18.89;52.16
41843;BME280;74160;52.530;13.188;2024-01-16T03:24:15;99837.38;;;18.86;52.25
41843;BME280;74160;52.530;13.188;2024-01-16T03:26:41;99840.66;;;18.88;52.16
41843;BME280;74160;52.530;13.188;2024-01-16T03:29:07;99839.81;;;18.87;52.15
41843;BME280;74160;52.530;13.188;2024-01-16T03:31:32;99853.34;;;18.86;52.21
41843;BME280;74160;52.530;13.188;2024-01-16T03:33:58;99860.91;;;18.82;52.24
41843;BME280;74160;52.530;13.188;2024-01-16T03:36:23;99860.13;;;18.88;52.07
41843;BME280;74160;52.530;13.188;2024-01-16T03:38:49;99868.50;;;18.85;51.97
41843;BME280;74160;52.530;13.188;2024-01-16T03:41:14;99883.88;;;18.90;52.06
41843;BME280;74160;52.530;13.188;2024-01-16T03:43:40;99890.41;;;18.87;52.06
41843;BME280;74160;52.530;13.188;2024-01-16T03:46:05;99899.63;;;18.85;52.11
41843;BME280;74160;52.530;13.188;2024-01-16T03:48:30;99895.72;;;18.87;51.83
41843;BME280;74160;52.530;13.188;2024-01-16T03:50:56;99899.44;;;18.86;52.09
41843;BME280;74160;52.530;13.188;2024-01-16T03:53:21;99885.50;;;18.84;52.22
41843;BME280;74160;52.530;13.188;2024-01-16T03:55:47;99903.09;;;18.85;51.82
41843;BME280;74160;52.530;13.188;2024-01-16T03:58:12;99898.38;;;18.80;52.36
41843;BME280;74160;52.530;13.188;2024-01-16T04:00:38;99904.13;;;18.84;51.96
41843;BME280;74160;52.530;13.188;2024-01-16T04:03:03;99899.44;;;18.86;51.90
41843;BME280;74160;52.530;13.188;2024-01-16T04:05:28;99897.59;;;18.87;52.18
41843;BME280;74160;52.530;13.188;2024-01-16T04:07:54;99905.97;;;18.84;52.25
41843;BME280;74160;52.530;13.188;2024-01-16T04:10:19;99907.41;;;18.86;52.08
41843;BME280;74160;52.530;13.188;2024-01-16T04:12:44;99912.56;;;18.88;51.92
41843;BME280;74160;52.530;13.188;2024-01-16T04:15:10;99916.81;;;18.82;51.86
41843;BME280;74160;52.530;13.188;2024-01-16T04:17:35;99916.19;;;18.80;52.04
41843;BME280;74160;52.530;13.188;2024-01-16T04:20:00;99927.06;;;18.85;52.02
41843;BME280;74160;52.530;13.188;2024-01-16T04:22:25;99925.44;;;18.84;51.85
41843;BME280;74160;52.530;13.188;2024-01-16T04:24:51;99924.63;;;18.84;51.89
41843;BME280;74160;52.530;13.188;2024-01-16T04:27:16;99923.16;;;18.81;51.93
41843;BME280;74160;52.530;13.188;2024-01-16T04:29:41;99930.50;;;18.79;52.21
41843;BME280;74160;52.530;13.188;2024-01-16T04:32:06;99932.00;;;18.88;51.85
41843;BME280;74160;52.530;13.188;2024-01-16T04:34:32;99926.44;;;18.83;51.94
41843;BME280;74160;52.530;13.188;2024-01-16T04:36:57;99926.84;;;18.80;51.86
41843;BME280;74160;52.530;13.188;2024-01-16T04:39:22;99923.38;;;18.79;51.87
41843;BME280;74160;52.530;13.188;2024-01-16T04:41:48;99924.00;;;18.82;51.89
41843;BME280;74160;52.530;13.188;2024-01-16T04:44:13;99921.72;;;18.85;51.79
41843;BME280;74160;52.530;13.188;2024-01-16T04:46:38;99925.81;;;18.81;51.82
41843;BME280;74160;52.530;13.188;2024-01-16T04:49:03;99927.66;;;18.80;51.93
41843;BME280;74160;52.530;13.188;2024-01-16T04:51:29;99931.50;;;18.78;51.96
41843;BME280;74160;52.530;13.188;2024-01-16T04:53:54;99938.69;;;18.77;52.15
41843;BME280;74160;52.530;13.188;2024-01-16T04:56:19;99936.69;;;18.79;52.00
41843;BME280;74160;52.530;13.188;2024-01-16T04:58:46;99935.94;;;18.71;51.97
41843;BME280;74160;52.530;13.188;2024-01-16T05:01:11;99936.69;;;18.79;51.93
41843;BME280;74160;52.530;13.188;2024-01-16T05:03:37;99934.81;;;18.80;51.85
41843;BME280;74160;52.530;13.188;2024-01-16T05:06:03;99934.00;;;18.79;51.92
41843;BME280;74160;52.530;13.188;2024-01-16T05:08:28;99946.28;;;18.80;51.97
41843;BME280;74160;52.530;13.188;2024-01-16T05:10:53;99943.16;;;18.77;51.86
41843;BME280;74160;52.530;13.188;2024-01-16T05:13:18;99948.94;;;18.80;52.07
41843;BME280;74160;52.530;13.188;2024-01-16T05:15:44;99953.47;;;18.80;51.83
41843;BME280;74160;52.530;13.188;2024-01-16T05:18:09;99952.25;;;18.83;51.68
41843;BME280;74160;52.530;13.188;2024-01-16T05:20:34;99959.00;;;18.85;51.97
41843;BME280;74160;52.530;13.188;2024-01-16T05:23:00;99960.78;;;18.78;52.23
41843;BME280;74160;52.530;13.188;2024-01-16T05:25:25;99962.06;;;18.82;51.85
41843;BME280;74160;52.530;13.188;2024-01-16T05:27:50;99956.94;;;18.80;52.08
41843;BME280;74160;52.530;13.188;2024-01-16T05:30:15;99963.63;;;18.76;52.13
41843;BME280;74160;52.530;13.188;2024-01-16T05:32:41;99962.25;;;18.80;51.89
41843;BME280;74160;52.530;13.188;2024-01-16T05:35:06;99967.00;;;18.85;51.96
41843;BME280;74160;52.530;13.188;2024-01-16T05:37:32;99960.03;;;18.84;51.98
41843;BME280;74160;52.530;13.188;2024-01-16T05:39:57;99974.94;;;18.78;51.86
41843;BME280;74160;52.530;13.188;2024-01-16T05:42:22;99970.00;;;18.75;51.88
41843;BME280;74160;52.530;13.188;2024-01-16T05:44:48;99977.00;;;18.83;52.10
41843;BME280;74160;52.530;13.188;2024-01-16T05:47:13;99973.56;;;12.16;38.08
41843;BME280;74160;52.530;13.188;2024-01-16T05:49:38;99987.97;;;8.24;43.90
41843;BME280;74160;52.530;13.188;2024-01-16T05:52:04;100006.41;;;7.24;45.84
41843;BME280;74160;52.530;13.188;2024-01-16T05:54:29;100013.06;;;7.05;46.49
41843;BME280;74160;52.530;13.188;2024-01-16T05:56:54;100012.22;;;6.82;46.79
41843;BME280;74160;52.530;13.188;2024-01-16T05:59:19;100010.19;;;6.86;46.59
41843;BME280;74160;52.530;13.188;2024-01-16T06:01:45;100011.22;;;6.61;47.01
41843;BME280;74160;52.530;13.188;2024-01-16T06:04:10;100012.63;;;9.46;44.52
41843;BME280;74160;52.530;13.188;2024-01-16T06:06:35;99995.84;;;12.40;42.08
41843;BME280;74160;52.530;13.188;2024-01-16T06:09:01;99995.88;;;13.69;41.78
41843;BME280;74160;52.530;13.188;2024-01-16T06:11:30;99994.47;;;14.56;42.55
41843;BME280;74160;52.530;13.188;2024-01-16T06:13:56;99997.47;;;15.09;41.89
41843;BME280;74160;52.530;13.188;2024-01-16T06:16:21;99999.44;;;15.55;42.14
41843;BME280;74160;52.530;13.188;2024-01-16T06:18:46;99999.47;;;15.86;42.61
41843;BME280;74160;52.530;13.188;2024-01-16T06:21:12;100003.84;;;16.02;43.00
41843;BME280;74160;52.530;13.188;2024-01-16T06:23:37;100017.41;;;16.22;43.40
41843;BME280;74160;52.530;13.188;2024-01-16T06:26:03;100017.56;;;16.44;43.73
41843;BME280;74160;52.530;13.188;2024-01-16T06:28:28;100022.94;;;16.58;43.94
41843;BME280;74160;52.530;13.188;2024-01-16T06:30:53;100023.50;;;16.69;44.90
41843;BME280;74160;52.530;13.188;2024-01-16T06:33:18;100019.34;;;16.89;44.67
41843;BME280;74160;52.530;13.188;2024-01-16T06:35:44;100020.91;;;16.98;44.61
41843;BME280;74160;52.530;13.188;2024-01-16T06:38:09;100030.97;;;17.03;45.81
41843;BME280;74160;52.530;13.188;2024-01-16T06:40:34;100033.28;;;17.06;45.85
41843;BME280;74160;52.530;13.188;2024-01-16T06:42:59;100033.53;;;17.11;46.46
41843;BME280;74160;52.530;13.188;2024-01-16T06:45:25;100048.38;;;17.20;46.03
41843;BME280;74160;52.530;13.188;2024-01-16T06:47:51;100051.94;;;17.28;46.48
41843;BME280;74160;52.530;13.188;2024-01-16T06:50:16;100055.06;;;17.31;47.02
41843;BME280;74160;52.530;13.188;2024-01-16T06:52:42;100062.91;;;17.39;46.47
41843;BME280;74160;52.530;13.188;2024-01-16T06:55:07;100065.03;;;17.44;46.42
41843;BME280;74160;52.530;13.188;2024-01-16T06:57:33;100064.47;;;17.49;47.11
41843;BME280;74160;52.530;13.188;2024-01-16T06:59:58;100074.38;;;17.55;47.30
41843;BME280;74160;52.530;13.188;2024-01-16T07:02:23;100070.34;;;17.59;47.64
41843;BME280;74160;52.530;13.188;2024-01-16T07:04:48;100069.13;;;17.62;48.29
41843;BME280;74160;52.530;13.188;2024-01-16T07:07:14;100073.53;;;17.69;47.57
41843;BME280;74160;52.530;13.188;2024-01-16T07:09:39;100074.59;;;17.75;47.28
41843;BME280;74160;52.530;13.188;2024-01-16T07:12:04;100073.84;;;17.81;46.89
41843;BME280;74160;52.530;13.188;2024-01-16T07:14:30;100080.75;;;17.90;47.54
41843;BME280;74160;52.530;13.188;2024-01-16T07:16:56;100087.53;;;17.93;47.70
41843;BME280;74160;52.530;13.188;2024-01-16T07:19:21;100086.91;;;17.91;47.67
41843;BME280;74160;52.530;13.188;2024-01-16T07:21:49;100084.69;;;17.94;47.55
41843;BME280;74160;52.530;13.188;2024-01-16T07:24:14;100082.50;;;17.98;48.07
41843;BME280;74160;52.530;13.188;2024-01-16T07:26:39;100088.44;;;18.00;47.73
41843;BME280;74160;52.530;13.188;2024-01-16T07:29:06;100087.41;;;18.01;48.28
41843;BME280;74160;52.530;13.188;2024-01-16T07:31:31;100089.91;;;18.03;48.41
41843;BME280;74160;52.530;13.188;2024-01-16T07:33:56;100085.22;;;18.05;48.39
41843;BME280;74160;52.530;13.188;2024-01-16T07:36:22;100085.00;;;18.06;48.74
41843;BME280;74160;52.530;13.188;2024-01-16T07:38:47;100086.50;;;18.09;48.29
41843;BME280;74160;52.530;13.188;2024-01-16T07:41:12;100093.63;;;18.08;48.93
41843;BME280;74160;52.530;13.188;2024-01-16T07:43:38;100102.88;;;18.12;48.47
41843;BME280;74160;52.530;13.188;2024-01-16T07:46:03;100101.50;;;18.16;48.59
41843;BME280;74160;52.530;13.188;2024-01-16T07:48:28;100109.28;;;18.18;48.92
41843;BME280;74160;52.530;13.188;2024-01-16T07:50:54;100113.78;;;18.17;49.25
41843;BME280;74160;52.530;13.188;2024-01-16T07:53:19;100117.09;;;18.19;48.85
41843;BME280;74160;52.530;13.188;2024-01-16T07:55:44;100118.09;;;18.18;48.80
41843;BME280;74160;52.530;13.188;2024-01-16T07:58:10;100122.97;;;18.15;48.94
41843;BME280;74160;52.530;13.188;2024-01-16T08:00:36;100125.63;;;18.15;49.55
41843;BME280;74160;52.530;13.188;2024-01-16T08:03:01;100129.28;;;18.14;49.65
41843;BME280;74160;52.530;13.188;2024-01-16T08:05:27;100127.72;;;18.19;49.70
41843;BME280;74160;52.530;13.188;2024-01-16T08:07:53;100127.34;;;18.23;49.80
41843;BME280;74160;52.530;13.188;2024-01-16T08:10:18;100132.13;;;18.27;49.92
41843;BME280;74160;52.530;13.188;2024-01-16T08:12:43;100134.56;;;18.29;49.80
41843;BME280;74160;52.530;13.188;2024-01-16T08:15:08;100148.97;;;18.34;49.85
41843;BME280;74160;52.530;13.188;2024-01-16T08:17:34;100144.28;;;18.36;49.84
41843;BME280;74160;52.530;13.188;2024-01-16T08:19:59;100137.97;;;18.37;50.07
41843;BME280;74160;52.530;13.188;2024-01-16T08:22:24;100140.03;;;18.42;50.04
41843;BME280;74160;52.530;13.188;2024-01-16T08:24:49;100139.00;;;18.43;50.27
41843;BME280;74160;52.530;13.188;2024-01-16T08:27:15;100144.59;;;18.48;50.20
41843;BME280;74160;52.530;13.188;2024-01-16T08:29:41;100139.06;;;18.50;50.33
41843;BME280;74160;52.530;13.188;2024-01-16T08:32:07;100143.75;;;18.48;50.52
41843;BME280;74160;52.530;13.188;2024-01-16T08:34:32;100139.91;;;18.50;50.39
41843;BME280;74160;52.530;13.188;2024-01-16T08:36:57;100141.38;;;18.53;50.64
41843;BME280;74160;52.530;13.188;2024-01-16T08:39:23;100144.50;;;18.56;50.56
41843;BME280;74160;52.530;13.188;2024-01-16T08:41:49;100146.94;;;18.58;50.69
41843;BME280;74160;52.530;13.188;2024-01-16T08:44:14;100138.13;;;18.57;50.70
41843;BME280;74160;52.530;13.188;2024-01-16T08:46:40;100133.44;;;18.59;50.76
41843;BME280;74160;52.530;13.188;2024-01-16T08:49:05;100133.22;;;18.54;49.37
41843;BME280;74160;52.530;13.188;2024-01-16T08:51:30;100134.72;;;18.42;49.50
41843;BME280;74160;52.530;13.188;2024-01-16T08:53:55;100138.84;;;18.45;49.77
41843;BME280;74160;52.530;13.188;2024-01-16T08:56:20;100135.53;;;18.43;49.80
41843;BME280;74160;52.530;13.188;2024-01-16T08:58:46;100132.69;;;18.44;49.87
41843;BME280;74160;52.530;13.188;2024-01-16T09:01:11;100141.94;;;18.48;49.79
41843;BME280;74160;52.530;13.188;2024-01-16T09:03:36;100143.13;;;18.46;49.98
41843;BME280;74160;52.530;13.188;2024-01-16T09:06:02;100147.81;;;18.44;50.05
41843;BME280;74160;52.530;13.188;2024-01-16T09:08:27;100148.09;;;18.49;50.35
41843;BME280;74160;52.530;13.188;2024-01-16T09:10:53;100152.47;;;18.56;50.05
41843;BME280;74160;52.530;13.188;2024-01-16T09:13:19;100146.94;;;18.58;50.45
41843;BME280;74160;52.530;13.188;2024-01-16T09:15:45;100145.47;;;18.55;50.92
41843;BME280;74160;52.530;13.188;2024-01-16T09:18:11;100141.81;;;18.56;50.94
41843;BME280;74160;52.530;13.188;2024-01-16T09:20:37;100148.78;;;18.57;51.04
41843;BME280;74160;52.530;13.188;2024-01-16T09:23:02;100154.75;;;18.59;51.31
41843;BME280;74160;52.530;13.188;2024-01-16T09:25:27;100162.38;;;18.63;51.18
41843;BME280;74160;52.530;13.188;2024-01-16T09:27:54;100163.00;;;18.65;51.27
41843;BME280;74160;52.530;13.188;2024-01-16T09:30:19;100161.16;;;18.65;51.13
41843;BME280;74160;52.530;13.188;2024-01-16T09:32:47;100163.81;;;18.65;51.24
41843;BME280;74160;52.530;13.188;2024-01-16T09:35:12;100163.41;;;18.68;51.26
41843;BME280;74160;52.530;13.188;2024-01-16T09:37:38;100167.53;;;18.71;51.31
41843;BME280;74160;52.530;13.188;2024-01-16T09:40:05;100170.19;;;18.71;51.50
41843;BME280;74160;52.530;13.188;2024-01-16T09:42:30;100175.16;;;18.74;51.62
41843;BME280;74160;52.530;13.188;2024-01-16T09:44:55;100168.63;;;18.76;51.55
41843;BME280;74160;52.530;13.188;2024-01-16T09:47:21;100167.81;;;18.76;51.67
41843;BME280;74160;52.530;13.188;2024-01-16T09:49:47;100167.06;;;18.82;51.63
41843;BME280;74160;52.530;13.188;2024-01-16T09:52:13;100184.75;;;11.07;42.06
41843;BME280;74160;52.530;13.188;2024-01-16T09:54:39;100176.19;;;9.45;46.23
41843;BME280;74160;52.530;13.188;2024-01-16T09:57:04;100184.34;;;8.56;46.52
41843;BME280;74160;52.530;13.188;2024-01-16T09:59:31;100182.84;;;10.20;50.47
41843;BME280;74160;52.530;13.188;2024-01-16T10:01:57;100173.22;;;13.90;48.21
41843;BME280;74160;52.530;13.188;2024-01-16T10:04:26;100176.41;;;15.43;50.38
41843;BME280;74160;52.530;13.188;2024-01-16T10:06:52;100171.91;;;16.08;52.17
41843;BME280;74160;52.530;13.188;2024-01-16T10:09:19;100169.88;;;16.49;53.79
41843;BME280;74160;52.530;13.188;2024-01-16T10:11:44;100170.09;;;16.71;55.72
41843;BME280;74160;52.530;13.188;2024-01-16T10:14:10;100170.63;;;16.89;56.55
41843;BME280;74160;52.530;13.188;2024-01-16T10:19:47;100171.00;;;17.39;57.64
41843;BME280;74160;52.530;13.188;2024-01-16T10:22:13;100166.63;;;17.46;58.89
41843;BME280;74160;52.530;13.188;2024-01-16T10:24:38;100172.03;;;17.53;58.69
41843;BME280;74160;52.530;13.188;2024-01-16T10:27:04;100169.94;;;17.63;60.89
41843;BME280;74160;52.530;13.188;2024-01-16T10:29:29;100172.69;;;17.70;60.90
41843;BME280;74160;52.530;13.188;2024-01-16T10:31:57;100175.25;;;17.78;61.37
41843;BME280;74160;52.530;13.188;2024-01-16T10:34:23;100176.38;;;17.84;61.71
41843;BME280;74160;52.530;13.188;2024-01-16T10:36:50;100183.63;;;17.90;61.98
41843;BME280;74160;52.530;13.188;2024-01-16T10:39:16;100174.91;;;17.96;63.15
41843;BME280;74160;52.530;13.188;2024-01-16T10:41:41;100171.88;;;17.99;63.12
41843;BME280;74160;52.530;13.188;2024-01-16T10:44:07;100176.44;;;18.05;63.17
41843;BME280;74160;52.530;13.188;2024-01-16T10:46:33;100164.25;;;18.11;63.77
41843;BME280;74160;52.530;13.188;2024-01-16T10:49:02;100170.63;;;18.16;63.52
41843;BME280;74160;52.530;13.188;2024-01-16T10:51:28;100176.41;;;18.20;64.13
41843;BME280;74160;52.530;13.188;2024-01-16T10:54:00;100179.53;;;18.24;61.66
41843;BME280;74160;52.530;13.188;2024-01-16T10:56:29;100179.47;;;12.39;39.97
41843;BME280;74160;52.530;13.188;2024-01-16T10:59:05;100193.66;;;9.14;45.86
41843;BME280;74160;52.530;13.188;2024-01-16T11:01:31;100187.50;;;11.92;45.19
41843;BME280;74160;52.530;13.188;2024-01-16T11:03:57;100183.53;;;14.85;47.38
41843;BME280;74160;52.530;13.188;2024-01-16T11:06:24;100183.72;;;16.05;51.01
41843;BME280;74160;52.530;13.188;2024-01-16T11:08:49;100176.47;;;16.53;54.01
41843;BME280;74160;52.530;13.188;2024-01-16T11:11:16;100180.94;;;16.84;55.58
41843;BME280;74160;52.530;13.188;2024-01-16T11:13:42;100180.81;;;17.01;57.17
41843;BME280;74160;52.530;13.188;2024-01-16T11:16:11;100174.53;;;17.16;58.41
41843;BME280;74160;52.530;13.188;2024-01-16T11:18:36;100172.91;;;17.30;57.67
41843;BME280;74160;52.530;13.188;2024-01-16T11:21:12;100174.69;;;17.38;59.75
41843;BME280;74160;52.530;13.188;2024-01-16T11:23:38;100170.09;;;17.47;60.39
41843;BME280;74160;52.530;13.188;2024-01-16T11:28:47;100175.44;;;17.62;61.23
41843;BME280;74160;52.530;13.188;2024-01-16T11:31:31;100162.88;;;17.70;61.89
41843;BME280;74160;52.530;13.188;2024-01-16T11:33:57;100169.47;;;13.23;41.15
41843;BME280;74160;52.530;13.188;2024-01-16T11:39:26;100162.03;;;15.37;47.58
41843;BME280;74160;52.530;13.188;2024-01-16T11:47:00;100160.97;;;17.11;58.02
41843;BME280;74160;52.530;13.188;2024-01-16T11:49:25;100161.19;;;17.25;58.73
41843;BME280;74160;52.530;13.188;2024-01-16T11:51:51;100152.16;;;17.34;58.62
41843;BME280;74160;52.530;13.188;2024-01-16T11:54:16;100153.88;;;17.42;59.42
41843;BME280;74160;52.530;13.188;2024-01-16T11:56:48;100150.31;;;17.49;60.75
41843;BME280;74160;52.530;13.188;2024-01-16T11:59:40;100151.88;;;17.58;61.64
41843;BME280;74160;52.530;13.188;2024-01-16T12:02:12;100156.81;;;17.62;61.61
41843;BME280;74160;52.530;13.188;2024-01-16T12:04:39;100145.28;;;17.69;62.44
41843;BME280;74160;52.530;13.188;2024-01-16T12:07:04;100143.06;;;17.73;62.76
41843;BME280;74160;52.530;13.188;2024-01-16T12:09:29;100142.16;;;17.80;62.40
41843;BME280;74160;52.530;13.188;2024-01-16T12:11:55;100139.81;;;17.86;63.24
41843;BME280;74160;52.530;13.188;2024-01-16T12:14:22;100141.28;;;17.88;63.25
41843;BME280;74160;52.530;13.188;2024-01-16T12:16:47;100133.75;;;17.92;63.77
41843;BME280;74160;52.530;13.188;2024-01-16T12:19:13;100133.00;;;17.98;63.94
41843;BME280;74160;52.530;13.188;2024-01-16T12:21:41;100133.91;;;18.05;62.80
41843;BME280;74160;52.530;13.188;2024-01-16T12:24:08;100123.72;;;18.09;62.00
41843;BME280;74160;52.530;13.188;2024-01-16T12:26:35;100128.28;;;18.15;63.19
41843;BME280;74160;52.530;13.188;2024-01-16T12:29:00;100131.59;;;18.17;63.12
41843;BME280;74160;52.530;13.188;2024-01-16T12:31:26;100122.41;;;18.19;63.24
41843;BME280;74160;52.530;13.188;2024-01-16T12:33:52;100121.38;;;18.20;62.23
41843;BME280;74160;52.530;13.188;2024-01-16T12:36:17;100122.00;;;18.23;61.50
41843;BME280;74160;52.530;13.188;2024-01-16T12:38:42;100121.84;;;18.24;63.20
41843;BME280;74160;52.530;13.188;2024-01-16T12:41:08;100129.63;;;18.26;63.24
41843;BME280;74160;52.530;13.188;2024-01-16T12:43:34;100121.47;;;18.27;62.09
41843;BME280;74160;52.530;13.188;2024-01-16T12:45:59;100118.25;;;18.32;62.74
41843;BME280;74160;52.530;13.188;2024-01-16T12:48:26;100120.91;;;18.32;62.05
41843;BME280;74160;52.530;13.188;2024-01-16T12:50:51;100106.97;;;18.30;62.53